createdAt,value
2023-04-06T00:00:34.512Z,3.70
2023-04-06T00:03:01.162Z,4.03
2023-04-06T00:05:28.919Z,3.75
2023-04-06T00:07:56.956Z,3.88
2023-04-06T00:10:23.448Z,3.80
2023-04-06T00:12:49.938Z,3.58
2023-04-06T00:15:16.637Z,3.97
2023-04-06T00:17:43.155Z,4.15
2023-04-06T00:20:10.639Z,4.03
2023-04-06T00:22:37.065Z,3.80
2023-04-06T00:25:03.695Z,3.70
2023-04-06T00:27:30.521Z,3.83
2023-04-06T00:29:57.125Z,3.90
2023-04-06T00:32:23.633Z,4.88
2023-04-06T00:34:50.101Z,4.10
2023-04-06T00:37:16.575Z,4.38
2023-04-06T00:39:43.761Z,4.00
2023-04-06T00:42:16.630Z,4.43
2023-04-06T00:44:43.094Z,4.25
2023-04-06T00:47:10.242Z,4.38
2023-04-06T00:49:36.836Z,4.70
2023-04-06T00:52:03.341Z,3.92
2023-04-06T00:54:30.408Z,4.70
2023-04-06T00:56:57.268Z,4.47
2023-04-06T00:59:23.792Z,4.63
2023-04-06T01:01:50.535Z,5.05
2023-04-06T01:04:17.138Z,4.38
2023-04-06T01:06:43.609Z,4.90
2023-04-06T01:09:10.447Z,4.78
2023-04-06T01:11:37.142Z,4.35
2023-04-06T01:14:04.589Z,4.78
2023-04-06T01:16:31.388Z,5.10
2023-04-06T01:18:58.061Z,5.20
2023-04-06T01:21:24.643Z,4.78
2023-04-06T01:23:51.263Z,5.10
2023-04-06T01:26:17.857Z,5.43
2023-04-06T01:28:45.570Z,5.25
2023-04-06T01:31:12.148Z,4.72
2023-04-06T01:33:38.679Z,4.80
2023-04-06T01:36:05.581Z,4.50
2023-04-06T01:38:32.159Z,4.20
2023-04-06T01:40:58.697Z,4.60
2023-04-06T01:43:25.463Z,4.82
2023-04-06T01:45:52.012Z,4.75
2023-04-06T01:48:19.853Z,4.90
2023-04-06T01:50:46.420Z,4.60
2023-04-06T01:53:12.961Z,5.00
2023-04-06T01:55:39.461Z,4.57
2023-04-06T01:58:05.999Z,4.90
2023-04-06T02:00:32.558Z,4.70
2023-04-06T02:02:59.082Z,5.00
2023-04-06T02:05:26.573Z,5.10
2023-04-06T02:07:53.320Z,4.65
2023-04-06T02:10:19.929Z,4.38
2023-04-06T02:12:46.420Z,4.88
2023-04-06T02:15:14.390Z,4.35
2023-04-06T02:17:42.111Z,4.75
2023-04-06T02:20:09.426Z,4.93
2023-04-06T02:22:36.589Z,4.32
2023-04-06T02:25:03.635Z,5.03
2023-04-06T02:27:30.118Z,4.65
2023-04-06T02:29:56.565Z,6.30
2023-04-06T02:32:23.060Z,4.78
2023-04-06T02:34:49.586Z,5.22
2023-04-06T02:37:16.066Z,5.07
2023-04-06T02:39:42.663Z,4.88
2023-04-06T02:42:09.778Z,5.18
2023-04-06T02:44:36.368Z,5.28
2023-04-06T02:47:02.836Z,4.68
2023-04-06T02:49:29.386Z,5.53
2023-04-06T02:51:55.825Z,5.05
2023-04-06T02:54:22.314Z,5.70
2023-04-06T02:56:48.781Z,5.13
2023-04-06T02:59:15.546Z,4.90
2023-04-06T03:01:42.049Z,4.45
2023-04-06T03:04:08.621Z,5.10
2023-04-06T03:06:35.310Z,5.15
2023-04-06T03:09:01.841Z,4.75
2023-04-06T03:11:28.246Z,5.82
2023-04-06T03:13:54.803Z,5.25
2023-04-06T03:16:21.654Z,4.93
2023-04-06T03:18:48.484Z,5.18
2023-04-06T03:21:16.358Z,5.95
2023-04-06T03:23:43.562Z,7.22
2023-04-06T03:26:10.699Z,5.25
2023-04-06T03:28:37.135Z,5.20
2023-04-06T03:31:03.712Z,5.38
2023-04-06T03:33:30.349Z,4.95
2023-04-06T03:35:56.861Z,5.57
2023-04-06T03:38:23.399Z,5.57
2023-04-06T03:40:49.960Z,5.53
2023-04-06T03:43:16.644Z,5.03
2023-04-06T03:45:43.066Z,5.45
2023-04-06T03:48:09.775Z,5.28
2023-04-06T03:50:36.619Z,5.57
2023-04-06T03:53:04.166Z,5.20
2023-04-06T03:55:31.143Z,6.70
2023-04-06T03:57:57.696Z,5.40
2023-04-06T04:00:24.368Z,5.55
2023-04-06T04:02:50.971Z,5.25
2023-04-06T04:05:17.571Z,5.38
2023-04-06T04:07:44.128Z,5.57
2023-04-06T04:10:10.840Z,5.65
2023-04-06T04:12:37.447Z,6.13
2023-04-06T04:15:04.344Z,5.47
2023-04-06T04:17:30.915Z,5.55
2023-04-06T04:19:57.538Z,6.57
2023-04-06T04:22:24.119Z,5.80
2023-04-06T04:24:50.653Z,6.43
2023-04-06T04:27:17.142Z,6.40
2023-04-06T04:29:44.739Z,6.35
2023-04-06T04:32:11.235Z,7.10
2023-04-06T04:34:41.120Z,5.85
2023-04-06T04:37:07.799Z,6.40
2023-04-06T04:39:34.435Z,6.43
2023-04-06T04:42:00.940Z,6.13
2023-04-06T04:44:27.493Z,7.30
2023-04-06T04:46:54.041Z,6.68
2023-04-06T04:49:20.628Z,5.85
2023-04-06T04:51:47.086Z,6.60
2023-04-06T04:54:13.612Z,6.72
2023-04-06T04:56:40.241Z,7.85
2023-04-06T04:59:07.010Z,7.57
2023-04-06T05:01:43.748Z,5.93
2023-04-06T05:04:18.128Z,6.78
2023-04-06T05:06:44.623Z,6.32
2023-04-06T05:09:11.182Z,6.40
2023-04-06T05:11:37.693Z,5.15
2023-04-06T05:14:04.402Z,6.10
2023-04-06T05:16:31.102Z,6.97
2023-04-06T05:18:57.826Z,6.78
2023-04-06T05:21:26.094Z,6.35
2023-04-06T05:23:54.924Z,7.35
2023-04-06T05:26:21.459Z,6.57
2023-04-06T05:28:48.047Z,6.32
2023-04-06T05:31:15.718Z,6.40
2023-04-06T05:33:42.445Z,6.40
2023-04-06T05:36:09.235Z,5.97
2023-04-06T05:38:36.295Z,6.38
2023-04-06T05:41:02.884Z,6.28
2023-04-06T05:43:29.510Z,6.32
2023-04-06T05:45:56.198Z,6.45
2023-04-06T05:48:22.710Z,6.40
2023-04-06T05:50:51.609Z,6.55
2023-04-06T05:53:18.515Z,6.20
2023-04-06T05:55:45.078Z,6.68
2023-04-06T05:58:11.742Z,7.45
2023-04-06T06:00:38.392Z,6.55
2023-04-06T06:03:06.641Z,6.60
2023-04-06T06:05:33.414Z,6.45
2023-04-06T06:08:00.098Z,6.55
2023-04-06T06:10:26.697Z,6.35
2023-04-06T06:12:53.277Z,6.93
2023-04-06T06:15:19.980Z,7.30
2023-04-06T06:17:46.555Z,6.30
2023-04-06T06:20:13.525Z,7.30
2023-04-06T06:22:41.181Z,6.35
2023-04-06T06:25:07.941Z,6.82
2023-04-06T06:27:34.552Z,7.63
2023-04-06T06:30:01.221Z,7.03
2023-04-06T06:32:27.884Z,6.78
2023-04-06T06:34:54.451Z,6.80
2023-04-06T06:37:21.101Z,6.82
2023-04-06T06:39:47.917Z,7.45
2023-04-06T06:42:14.949Z,6.25
2023-04-06T06:44:41.653Z,6.50
2023-04-06T06:47:08.271Z,7.47
2023-04-06T06:49:34.984Z,6.47
2023-04-06T06:52:01.565Z,6.90
2023-04-06T06:54:28.093Z,7.00
2023-04-06T06:56:55.800Z,6.43
2023-04-06T06:59:22.517Z,6.40
2023-04-06T07:01:51.046Z,6.55
2023-04-06T07:04:17.674Z,6.68
2023-04-06T07:06:44.601Z,7.95
2023-04-06T07:09:11.210Z,7.20
2023-04-06T07:11:37.837Z,7.43
2023-04-06T07:14:04.472Z,6.78
2023-04-06T07:16:31.279Z,7.70
2023-04-06T07:18:57.935Z,7.38
2023-04-06T07:21:24.503Z,7.30
2023-04-06T07:23:51.925Z,7.05
2023-04-06T07:26:18.787Z,7.82
2023-04-06T07:28:45.404Z,7.53
2023-04-06T07:31:12.298Z,8.20
2023-04-06T07:33:38.961Z,7.70
2023-04-06T07:36:06.216Z,8.18
2023-04-06T07:38:32.862Z,7.75
2023-04-06T07:40:59.464Z,7.63
2023-04-06T07:43:26.228Z,8.02
2023-04-06T07:45:53.103Z,7.60
2023-04-06T07:48:19.764Z,7.45
2023-04-06T07:50:46.385Z,8.63
2023-04-06T07:53:13.006Z,8.38
2023-04-06T07:55:39.768Z,8.40
2023-04-06T07:58:06.456Z,7.88
2023-04-06T08:00:33.126Z,7.65
2023-04-06T08:02:59.765Z,7.65
2023-04-06T08:05:26.339Z,7.72
2023-04-06T08:07:52.873Z,8.10
2023-04-06T08:10:19.529Z,8.20
2023-04-06T08:12:46.117Z,7.07
2023-04-06T08:15:12.816Z,8.30
2023-04-06T08:17:39.350Z,7.68
2023-04-06T08:20:06.387Z,8.02
2023-04-06T08:22:32.976Z,8.02
2023-04-06T08:24:59.617Z,7.40
2023-04-06T08:27:26.351Z,7.72
2023-04-06T08:29:52.882Z,8.60
2023-04-06T08:32:19.346Z,8.00
2023-04-06T08:34:46.399Z,8.10
2023-04-06T08:37:12.927Z,7.85
2023-04-06T08:39:39.935Z,7.25
2023-04-06T08:42:16.801Z,7.78
2023-04-06T08:44:43.921Z,7.68
2023-04-06T08:47:10.660Z,7.60
2023-04-06T08:49:38.800Z,7.88
2023-04-06T08:52:08.678Z,7.60
2023-04-06T08:54:35.864Z,7.38
2023-04-06T08:57:03.822Z,7.68
2023-04-06T08:59:31.051Z,8.70
2023-04-06T09:01:58.042Z,7.78
2023-04-06T09:04:24.763Z,8.85
2023-04-06T09:06:51.316Z,8.10
2023-04-06T09:09:17.862Z,7.82
2023-04-06T09:11:45.145Z,7.57
2023-04-06T09:14:11.681Z,8.00
2023-04-06T09:16:42.985Z,8.27
2023-04-06T09:19:10.724Z,7.07
2023-04-06T09:21:38.139Z,7.03
2023-04-06T09:24:05.434Z,7.72
2023-04-06T09:26:34.818Z,8.00
2023-04-06T09:29:02.573Z,7.18
2023-04-06T09:31:31.587Z,8.07
2023-04-06T09:33:58.652Z,8.55
2023-04-06T09:36:36.695Z,8.20
2023-04-06T09:39:04.780Z,8.15
2023-04-06T09:41:32.367Z,8.07
2023-04-06T09:44:12.359Z,8.68
2023-04-06T09:46:57.770Z,8.93
2023-04-06T09:49:31.157Z,9.38
2023-04-06T09:52:07.605Z,8.95
2023-04-06T09:54:36.527Z,8.27
2023-04-06T09:57:21.254Z,8.38
2023-04-06T10:00:13.838Z,9.35
2023-04-06T10:03:23.194Z,9.53
2023-04-06T10:06:05.654Z,9.02
2023-04-06T10:08:36.061Z,9.80
2023-04-06T10:11:03.144Z,11.00
2023-04-06T10:13:29.810Z,11.45
2023-04-06T10:15:56.440Z,11.57
2023-04-06T10:18:23.799Z,10.38
2023-04-06T10:20:54.399Z,11.30
2023-04-06T10:23:32.084Z,10.60
2023-04-06T10:26:01.117Z,10.82
2023-04-06T10:28:36.725Z,13.07
2023-04-06T10:31:06.425Z,13.30
2023-04-06T10:33:33.308Z,12.50
2023-04-06T10:36:11.171Z,14.43
2023-04-06T10:38:41.381Z,14.50
2023-04-06T10:41:15.520Z,14.80
2023-04-06T10:43:42.778Z,13.90
2023-04-06T10:46:10.510Z,15.13
2023-04-06T10:48:42.278Z,15.05
2023-04-06T10:51:12.025Z,14.32
2023-04-06T10:53:40.684Z,12.90
2023-04-06T10:56:12.799Z,15.02
2023-04-06T10:58:39.899Z,15.83
2023-04-06T11:01:06.976Z,14.90
2023-04-06T11:03:44.282Z,14.52
2023-04-06T11:06:11.054Z,15.18
2023-04-06T11:08:38.810Z,13.73
2023-04-06T11:11:17.164Z,13.95
2023-04-06T11:13:45.326Z,13.13
2023-04-06T11:16:22.313Z,12.88
2023-04-06T11:19:03.656Z,13.60
2023-04-06T11:21:40.196Z,12.98
2023-04-06T11:25:02.826Z,12.00
2023-04-06T11:27:32.584Z,11.85
2023-04-06T11:30:01.115Z,12.35
2023-04-06T11:32:27.713Z,12.43
2023-04-06T11:34:54.300Z,11.30
2023-04-06T11:37:21.010Z,11.30
2023-04-06T11:39:52.887Z,10.20
2023-04-06T11:42:27.413Z,11.20
2023-04-06T11:44:59.141Z,11.00
2023-04-06T11:47:34.235Z,11.40
2023-04-06T11:50:11.916Z,11.13
2023-04-06T11:52:40.303Z,11.10
2023-04-06T11:55:18.256Z,11.38
2023-04-06T11:57:45.932Z,11.25
2023-04-06T12:00:13.382Z,12.05
2023-04-06T12:02:50.230Z,10.88
2023-04-06T12:05:16.888Z,12.13
2023-04-06T12:07:44.615Z,11.48
2023-04-06T12:10:11.225Z,10.63
2023-04-06T12:12:37.741Z,10.73
2023-04-06T12:15:05.949Z,10.90
2023-04-06T12:17:32.525Z,11.32
2023-04-06T12:20:05.179Z,11.23
2023-04-06T12:22:37.321Z,10.43
2023-04-06T12:25:04.296Z,11.77
2023-04-06T12:27:30.850Z,11.50
2023-04-06T12:29:57.338Z,12.65
2023-04-06T12:32:23.994Z,11.25
2023-04-06T12:34:53.248Z,11.40
2023-04-06T12:37:19.798Z,12.40
2023-04-06T12:39:46.394Z,11.15
2023-04-06T12:42:13.674Z,11.50
2023-04-06T12:44:40.534Z,11.38
2023-04-06T12:47:08.394Z,12.30
2023-04-06T12:49:35.088Z,12.40
2023-04-06T12:52:03.228Z,11.57
2023-04-06T12:54:29.811Z,11.25
2023-04-06T12:56:57.533Z,10.38
2023-04-06T12:59:26.033Z,12.15
2023-04-06T13:01:53.557Z,12.18
2023-04-06T13:04:20.072Z,11.57
2023-04-06T13:06:46.484Z,12.45
2023-04-06T13:09:12.953Z,12.95
2023-04-06T13:11:39.821Z,13.70
2023-04-06T13:14:06.305Z,12.85
2023-04-06T13:16:36.511Z,12.68
2023-04-06T13:19:03.528Z,13.13
2023-04-06T13:21:31.328Z,13.95
2023-04-06T13:23:57.864Z,13.27
2023-04-06T13:26:24.357Z,13.32
2023-04-06T13:28:51.152Z,13.60
2023-04-06T13:31:17.693Z,13.63
2023-04-06T13:33:44.321Z,13.40
2023-04-06T13:36:10.873Z,13.60
2023-04-06T13:38:39.774Z,12.38
2023-04-06T13:41:06.971Z,11.77
2023-04-06T13:43:33.454Z,12.05
2023-04-06T13:46:01.998Z,11.88
2023-04-06T13:48:28.475Z,12.48
2023-04-06T13:50:54.918Z,11.15
2023-04-06T13:53:21.405Z,10.68
2023-04-06T13:55:55.542Z,10.55
2023-04-06T13:58:22.091Z,10.85
2023-04-06T14:00:48.804Z,9.60
2023-04-06T14:03:15.657Z,10.48
2023-04-06T14:05:42.142Z,10.07
2023-04-06T14:08:08.522Z,10.18
2023-04-06T14:10:39.696Z,10.70
2023-04-06T14:13:06.323Z,10.18
2023-04-06T14:15:32.935Z,10.63
2023-04-06T14:17:59.284Z,10.13
2023-04-06T14:20:25.658Z,10.25
2023-04-06T14:22:53.635Z,11.60
2023-04-06T14:25:19.988Z,12.27
2023-04-06T14:27:46.428Z,11.27
2023-04-06T14:30:13.256Z,11.48
2023-04-06T14:32:39.970Z,11.57
2023-04-06T14:35:07.816Z,11.15
2023-04-06T14:37:34.613Z,11.20
2023-04-06T14:40:00.948Z,11.15
2023-04-06T14:42:27.377Z,11.02
2023-04-06T14:44:54.632Z,11.30
2023-04-06T14:47:22.410Z,11.35
2023-04-06T14:49:51.868Z,11.00
2023-04-06T14:52:18.410Z,11.07
2023-04-06T14:54:44.778Z,11.68
2023-04-06T14:57:11.193Z,11.35
2023-04-06T14:59:39.980Z,12.20
2023-04-06T15:02:07.438Z,12.43
2023-04-06T15:04:36.335Z,12.77
2023-04-06T15:07:02.746Z,13.05
2023-04-06T15:09:29.087Z,13.80
2023-04-06T15:11:56.444Z,14.30
2023-04-06T15:14:22.782Z,14.25
2023-04-06T15:16:49.193Z,14.02
2023-04-06T15:19:15.590Z,14.68
2023-04-06T15:21:42.098Z,14.57
2023-04-06T15:24:09.520Z,14.77
2023-04-06T15:26:37.816Z,15.50
2023-04-06T15:29:04.566Z,14.68
2023-04-06T15:31:37.463Z,14.20
2023-04-06T15:34:04.580Z,14.60
2023-04-06T15:36:31.235Z,16.10
2023-04-06T15:38:58.309Z,14.82
2023-04-06T15:41:26.735Z,15.55
2023-04-06T15:43:54.432Z,15.63
2023-04-06T15:46:21.691Z,15.65
2023-04-06T15:48:48.359Z,15.70
2023-04-06T15:51:14.886Z,16.10
2023-04-06T15:53:41.184Z,15.32
2023-04-06T15:56:10.961Z,15.23
2023-04-06T15:58:37.655Z,14.43
2023-04-06T16:01:18.134Z,15.15
2023-04-06T16:03:45.358Z,13.75
2023-04-06T16:06:12.678Z,14.57
2023-04-06T16:08:40.234Z,13.45
2023-04-06T16:11:07.017Z,13.43
2023-04-06T16:13:33.750Z,14.63
2023-04-06T16:16:00.652Z,14.38
2023-04-06T16:18:27.463Z,14.85
2023-04-06T16:20:53.981Z,13.70
2023-04-06T16:23:20.619Z,14.40
2023-04-06T16:25:47.107Z,13.95
2023-04-06T16:28:13.538Z,12.48
2023-04-06T16:30:41.472Z,12.95
2023-04-06T16:33:10.041Z,12.30
2023-04-06T16:35:36.735Z,11.85
2023-04-06T16:38:03.265Z,11.88
2023-04-06T16:40:29.736Z,12.88
2023-04-06T16:42:56.210Z,11.80
2023-04-06T16:45:22.736Z,12.50
2023-04-06T16:47:50.441Z,11.35
2023-04-06T16:50:17.452Z,11.35
2023-04-06T16:52:44.187Z,10.80
2023-04-06T16:55:10.991Z,11.98
2023-04-06T16:57:37.545Z,11.00
2023-04-06T17:00:05.720Z,10.93
2023-04-06T17:02:36.133Z,10.57
2023-04-06T17:05:04.204Z,11.25
2023-04-06T17:07:35.511Z,10.50
2023-04-06T17:10:03.050Z,10.05
2023-04-06T17:12:29.932Z,10.93
2023-04-06T17:14:56.542Z,12.27
2023-04-06T17:17:23.353Z,11.60
2023-04-06T17:19:50.126Z,11.45
2023-04-06T17:22:20.558Z,11.25
2023-04-06T17:24:50.686Z,10.10
2023-04-06T17:27:17.262Z,10.40
2023-04-06T17:29:43.756Z,10.98
2023-04-06T17:32:12.007Z,10.60
2023-04-06T17:34:38.573Z,11.48
2023-04-06T17:37:05.688Z,11.10
2023-04-06T17:39:32.365Z,10.88
2023-04-06T17:42:00.081Z,10.85
2023-04-06T17:44:26.792Z,9.00
2023-04-06T17:46:53.257Z,10.52
2023-04-06T17:49:19.798Z,9.73
2023-04-06T17:51:46.305Z,8.85
2023-04-06T17:54:12.950Z,9.98
2023-04-06T17:56:39.697Z,10.38
2023-04-06T17:59:09.113Z,9.90
2023-04-06T18:01:35.806Z,10.57
2023-04-06T18:04:02.560Z,9.95
2023-04-06T18:06:29.095Z,11.05
2023-04-06T18:08:55.736Z,10.63
2023-04-06T18:11:22.268Z,10.65
2023-04-06T18:13:49.056Z,11.30
2023-04-06T18:16:17.303Z,11.65
2023-04-06T18:18:43.988Z,11.65
2023-04-06T18:21:10.488Z,11.40
2023-04-06T18:23:37.822Z,12.75
2023-04-06T18:26:05.756Z,11.50
2023-04-06T18:28:33.116Z,11.70
2023-04-06T18:30:59.904Z,11.07
2023-04-06T18:33:29.908Z,10.00
2023-04-06T18:35:59.824Z,10.13
2023-04-06T18:38:26.311Z,10.02
2023-04-06T18:40:52.866Z,9.68
2023-04-06T18:43:19.317Z,9.40
2023-04-06T18:45:45.885Z,9.90
2023-04-06T18:48:13.664Z,8.82
2023-04-06T18:50:40.515Z,8.68
2023-04-06T18:53:07.112Z,8.48
2023-04-06T18:55:33.976Z,8.20
2023-04-06T18:58:00.643Z,9.20
2023-04-06T19:00:27.214Z,9.05
2023-04-06T19:02:53.804Z,8.40
2023-04-06T19:05:22.159Z,8.60
2023-04-06T19:07:52.256Z,8.18
2023-04-06T19:10:19.591Z,8.23
2023-04-06T19:12:46.787Z,8.23
2023-04-06T19:15:13.664Z,7.63
2023-04-06T19:17:40.619Z,8.02
2023-04-06T19:20:08.392Z,7.80
2023-04-06T19:22:36.851Z,6.78
2023-04-06T19:25:07.832Z,7.70
2023-04-06T19:27:34.913Z,8.27
2023-04-06T19:30:01.551Z,7.60
2023-04-06T19:32:30.132Z,7.35
2023-04-06T19:34:56.921Z,6.32
2023-04-06T19:37:23.422Z,6.82
2023-04-06T19:39:49.880Z,6.80
2023-04-06T19:42:16.569Z,6.85
2023-04-06T19:44:43.095Z,6.03
2023-04-06T19:47:11.782Z,7.40
2023-04-06T19:49:40.682Z,7.20
2023-04-06T19:52:07.781Z,6.05
2023-04-06T19:54:35.782Z,5.82
2023-04-06T19:57:03.206Z,6.97
2023-04-06T19:59:29.810Z,6.97
2023-04-06T20:01:56.430Z,6.40
2023-04-06T20:04:23.840Z,6.55
2023-04-06T20:06:51.113Z,7.20
2023-04-06T20:09:17.536Z,7.10
2023-04-06T20:11:44.101Z,7.32
2023-04-06T20:14:10.916Z,7.32
2023-04-06T20:16:50.575Z,6.95
2023-04-06T20:19:17.229Z,7.45
2023-04-06T20:21:43.942Z,7.32
2023-04-06T20:24:11.679Z,6.90
2023-04-06T20:26:38.422Z,6.25
2023-04-06T20:29:04.942Z,6.90
2023-04-06T20:31:31.514Z,6.63
2023-04-06T20:33:58.146Z,7.00
2023-04-06T20:36:24.620Z,6.15
2023-04-06T20:38:51.070Z,7.30
2023-04-06T20:41:17.554Z,7.03
2023-04-06T20:43:44.117Z,7.05
2023-04-06T20:46:16.316Z,7.22
2023-04-06T20:48:42.853Z,7.18
2023-04-06T20:51:18.128Z,6.85
2023-04-06T20:53:44.908Z,7.18
2023-04-06T20:56:11.699Z,6.68
2023-04-06T20:58:38.169Z,6.55
2023-04-06T21:01:04.711Z,7.57
2023-04-06T21:03:31.388Z,7.38
2023-04-06T21:05:59.054Z,7.18
2023-04-06T21:08:25.632Z,7.65
2023-04-06T21:10:52.154Z,6.82
2023-04-06T21:13:18.674Z,7.75
2023-04-06T21:15:45.291Z,7.07
2023-04-06T21:18:12.342Z,6.88
2023-04-06T21:20:39.908Z,7.43
2023-04-06T21:23:06.514Z,6.90
2023-04-06T21:25:32.982Z,7.75
2023-04-06T21:27:59.429Z,7.25
2023-04-06T21:30:25.996Z,7.72
2023-04-06T21:32:52.644Z,7.60
2023-04-06T21:35:19.321Z,7.70
2023-04-06T21:37:45.950Z,7.72
2023-04-06T21:40:12.997Z,7.53
2023-04-06T21:42:39.578Z,8.02
2023-04-06T21:45:06.485Z,8.57
2023-04-06T21:47:35.015Z,8.02
2023-04-06T21:50:01.515Z,8.27
2023-04-06T21:52:27.987Z,9.32
2023-04-06T21:54:54.527Z,8.55
2023-04-06T21:57:21.016Z,8.48
2023-04-06T21:59:47.893Z,7.97
2023-04-06T22:02:14.367Z,8.65
2023-04-06T22:04:41.070Z,8.82
2023-04-06T22:07:07.684Z,8.25
2023-04-06T22:09:34.176Z,8.13
2023-04-06T22:12:00.793Z,9.43
2023-04-06T22:14:27.252Z,8.95
2023-04-06T22:16:53.717Z,8.63
2023-04-06T22:19:20.442Z,8.02
2023-04-06T22:21:46.956Z,9.27
2023-04-06T22:24:13.703Z,8.18
2023-04-06T22:26:40.388Z,8.85
2023-04-06T22:29:06.869Z,9.13
2023-04-06T22:31:33.378Z,9.27
2023-04-06T22:33:59.861Z,7.97
2023-04-06T22:36:26.628Z,9.38
2023-04-06T22:38:53.116Z,8.35
2023-04-06T22:41:19.582Z,9.57
2023-04-06T22:43:46.028Z,9.07
2023-04-06T22:46:12.512Z,8.40
2023-04-06T22:48:38.963Z,8.70
2023-04-06T22:51:05.528Z,9.20
2023-04-06T22:53:31.954Z,8.32
2023-04-06T22:55:58.431Z,9.27
2023-04-06T22:58:24.856Z,10.05
2023-04-06T23:00:51.356Z,9.30
2023-04-06T23:03:17.889Z,9.05
2023-04-06T23:05:45.106Z,9.60
2023-04-06T23:08:11.587Z,9.48
2023-04-06T23:10:41.769Z,9.57
2023-04-06T23:13:09.381Z,9.18
2023-04-06T23:15:36.216Z,9.25
2023-04-06T23:18:03.113Z,10.02
2023-04-06T23:20:29.577Z,9.55
2023-04-06T23:22:56.290Z,8.88
2023-04-06T23:25:22.781Z,9.13
2023-04-06T23:27:49.224Z,9.20
2023-04-06T23:30:15.712Z,9.05
2023-04-06T23:32:42.254Z,9.02
2023-04-06T23:35:09.173Z,8.75
2023-04-06T23:37:35.618Z,9.10
2023-04-06T23:40:02.166Z,8.13
2023-04-06T23:42:29.315Z,8.55
2023-04-06T23:44:58.290Z,8.63
2023-04-06T23:47:24.774Z,8.18
2023-04-06T23:49:51.300Z,7.65
2023-04-06T23:52:17.754Z,8.00
2023-04-06T23:54:44.273Z,8.15
2023-04-06T23:57:10.877Z,8.35
2023-04-06T23:59:37.317Z,7.63
